Terminal Aerodrome Forecast
Issued by NWS

Home | Current Version | Previous Version | Text Only | Print | Product List | Glossary On
Versions: 1 2 3 4 5 6 7 8 9 10 11 12 13
000
FTUS44 KLZK 202300
TAFPBF
TAF
KPBF 202325Z 2100/2124 09005KT P6SM SCT025 BKN050
      TEMPO 2102/2106 BKN025
     FM210600 06004KT P6SM VCSH OVC015
     FM211000 08005KT 4SM -RA BR OVC010
     FM211800 14006KT P6SM VCSH SCT015 BKN050=

USA.gov is the U.S. government's official web portal to all federal, state and local government web resources and services.